Kings Store, Virginia
Current Conditions -  °F | °C
As of 3:15 AM on Monday 26 Jan 2015 (Local Time) from KBCB Reporting Station
Overcast Overcast  
Wind Chill: 29°   Ceiling: 6500
Heat Index: 35°   Visibility: 10mi
Dew Point: 29°   Wind: 6mph
Humidity: 81%   Direction: 110°ESE
Pressure: 29.67"   Gusts: NA
Location:  37.0492°N, 80.1572°W
Report Text: KBCB 260815Z AUTO 11005KT 10SM OVC065 01/M02 A2967 RMK AO2 T00141016
Loading
Personal Weather Stations






























Interactive Weather Map New forecast layout! Learn more

10-Day Weather Forecast

Advertisements
Track Severe Weather on mobile